createdAt,value
2024-01-12T00:01:16.358Z,2.00
2024-01-12T00:06:25.563Z,2.50
2024-01-12T00:11:28.201Z,2.80
2024-01-12T00:16:30.853Z,3.40
2024-01-12T00:21:33.358Z,3.50
2024-01-12T00:26:36.037Z,3.60
2024-01-12T00:31:38.602Z,1.80
2024-01-12T00:36:41.170Z,2.10
2024-01-12T00:41:44.022Z,2.00
2024-01-12T00:46:51.700Z,2.50
2024-01-12T00:51:54.292Z,3.80
2024-01-12T00:56:57.041Z,4.10
2024-01-12T01:01:59.854Z,6.70
2024-01-12T01:07:02.570Z,9.40
2024-01-12T01:12:06.451Z,11.50
2024-01-12T01:17:08.984Z,6.60
2024-01-12T01:22:11.582Z,4.20
2024-01-12T01:27:14.169Z,4.60
2024-01-12T01:32:16.822Z,5.00
2024-01-12T01:37:19.439Z,3.00
2024-01-12T01:42:21.942Z,3.20
2024-01-12T01:47:26.706Z,2.60
2024-01-12T01:52:29.554Z,2.30
2024-01-12T01:57:33.833Z,2.00
2024-01-12T02:02:36.620Z,1.60
2024-01-12T02:07:39.492Z,1.80
2024-01-12T02:12:42.177Z,1.50
2024-01-12T02:17:44.878Z,2.00
2024-01-12T02:22:47.500Z,2.10
2024-01-12T02:27:50.011Z,2.10
2024-01-12T02:32:52.556Z,2.60
2024-01-12T02:37:55.101Z,2.10
2024-01-12T02:42:57.576Z,2.00
2024-01-12T02:48:00.182Z,2.10
2024-01-12T02:53:02.820Z,2.20
2024-01-12T02:58:05.328Z,2.00
2024-01-12T03:03:08.050Z,2.10
2024-01-12T03:08:11.816Z,2.40
2024-01-12T03:13:14.363Z,2.20
2024-01-12T03:18:16.986Z,2.20
2024-01-12T03:23:19.594Z,2.20
2024-01-12T03:28:22.105Z,3.00
2024-01-12T03:33:24.861Z,3.80
2024-01-12T03:38:27.500Z,4.60
2024-01-12T03:43:30.125Z,5.30
2024-01-12T03:48:33.514Z,5.10
2024-01-12T03:53:36.665Z,5.50
2024-01-12T03:58:39.774Z,5.00
2024-01-12T04:03:42.660Z,5.40
2024-01-12T04:08:45.278Z,5.00
2024-01-12T04:13:47.851Z,4.90
2024-01-12T04:18:50.533Z,5.40
2024-01-12T04:23:53.160Z,5.00
2024-01-12T04:28:55.851Z,4.50
2024-01-12T04:33:58.623Z,4.20
2024-01-12T04:39:01.291Z,10.10
2024-01-12T04:44:03.974Z,6.00
2024-01-12T04:49:06.839Z,3.50
2024-01-12T04:54:09.582Z,3.80
2024-01-12T04:59:12.295Z,4.10
2024-01-12T05:04:15.023Z,3.80
2024-01-12T05:09:18.115Z,5.80
2024-01-12T05:14:21.377Z,9.70
2024-01-12T05:19:24.009Z,6.40
2024-01-12T05:24:26.638Z,5.50
2024-01-12T05:29:29.152Z,5.40
2024-01-12T05:34:31.747Z,4.20
2024-01-12T05:39:34.249Z,4.20
2024-01-12T05:44:36.817Z,4.00
2024-01-12T05:49:39.577Z,4.60
2024-01-12T05:54:42.209Z,3.60
2024-01-12T05:59:44.746Z,3.10
2024-01-12T06:04:47.299Z,3.00
2024-01-12T06:09:49.812Z,3.30
2024-01-12T06:14:54.056Z,3.30
2024-01-12T06:19:56.606Z,3.40
2024-01-12T06:24:59.172Z,3.60
2024-01-12T06:30:01.950Z,2.40
2024-01-12T06:35:05.732Z,3.00
2024-01-12T06:40:09.251Z,4.00
2024-01-12T06:45:12.456Z,3.40
2024-01-12T06:50:15.252Z,4.50
2024-01-12T06:55:17.904Z,4.70
2024-01-12T07:00:20.754Z,5.90
2024-01-12T07:05:23.415Z,6.40
2024-01-12T07:10:26.056Z,5.70
2024-01-12T07:15:28.521Z,4.70
2024-01-12T07:20:31.086Z,3.30
2024-01-12T07:25:35.711Z,3.20
2024-01-12T07:30:38.407Z,2.40
2024-01-12T07:35:41.164Z,2.20
2024-01-12T07:40:43.708Z,2.50
2024-01-12T07:45:46.459Z,2.20
2024-01-12T07:50:49.052Z,2.70
2024-01-12T07:55:53.351Z,2.70
2024-01-12T08:00:56.004Z,3.00
2024-01-12T08:05:58.698Z,3.80
2024-01-12T08:11:01.411Z,4.00
2024-01-12T08:16:04.121Z,4.80
2024-01-12T08:21:06.764Z,3.90
2024-01-12T08:26:09.361Z,4.70
2024-01-12T08:31:12.724Z,4.70
2024-01-12T08:36:15.343Z,4.80
2024-01-12T08:41:18.229Z,6.10
2024-01-12T08:46:21.575Z,4.70
2024-01-12T08:51:24.913Z,5.30
2024-01-12T08:56:28.046Z,4.70
2024-01-12T09:01:30.792Z,4.60
2024-01-12T09:06:33.583Z,6.60
2024-01-12T09:11:36.836Z,6.10
2024-01-12T09:16:39.969Z,6.00
2024-01-12T09:21:43.226Z,6.80
2024-01-12T09:26:45.904Z,5.00
2024-01-12T09:31:48.676Z,6.00
2024-01-12T09:36:51.362Z,5.40
2024-01-12T09:42:03.531Z,4.30
2024-01-12T09:47:06.365Z,6.30
2024-01-12T09:52:09.137Z,7.20
2024-01-12T09:57:16.039Z,8.50
2024-01-12T10:02:19.740Z,7.00
2024-01-12T10:07:22.486Z,7.30
2024-01-12T10:12:25.244Z,8.60
2024-01-12T10:17:28.426Z,7.20
2024-01-12T10:22:31.851Z,5.50
2024-01-12T10:27:34.435Z,5.00
2024-01-12T10:32:37.064Z,5.10
2024-01-12T10:37:40.801Z,4.10
2024-01-12T10:42:49.794Z,5.30
2024-01-12T10:48:11.145Z,5.00
2024-01-12T10:53:37.887Z,4.90
2024-01-12T10:58:45.909Z,5.60
2024-01-12T11:03:49.677Z,4.80
2024-01-12T11:08:55.484Z,4.20
2024-01-12T11:13:59.538Z,3.60
2024-01-12T11:19:02.476Z,3.30
2024-01-12T11:24:05.870Z,5.00
2024-01-12T11:29:15.246Z,5.10
2024-01-12T11:34:19.716Z,3.90
2024-01-12T11:39:23.855Z,4.70
2024-01-12T11:44:26.912Z,4.30
2024-01-12T11:49:31.185Z,4.00
2024-01-12T11:54:34.391Z,4.90
2024-01-12T11:59:38.584Z,4.20
2024-01-12T12:04:41.240Z,3.90
2024-01-12T12:09:46.801Z,4.30
2024-01-12T12:15:05.922Z,3.40
2024-01-12T12:20:12.497Z,3.60
2024-01-12T12:25:16.777Z,3.40
2024-01-12T12:30:19.585Z,3.70
2024-01-12T12:35:25.223Z,3.50
2024-01-12T12:40:27.951Z,3.50
2024-01-12T12:45:31.067Z,3.50
2024-01-12T12:50:33.751Z,2.80
2024-01-12T12:55:36.317Z,3.20
2024-01-12T13:00:39.055Z,3.50
2024-01-12T13:05:41.971Z,3.50
2024-01-12T13:10:44.684Z,3.30
2024-01-12T13:15:47.216Z,2.60
2024-01-12T13:20:50.033Z,2.90
2024-01-12T13:25:54.885Z,3.30
2024-01-12T13:31:00.774Z,3.90
2024-01-12T13:36:03.625Z,3.20
2024-01-12T13:41:07.370Z,2.80
2024-01-12T13:46:11.017Z,2.90
2024-01-12T13:51:13.649Z,2.70
2024-01-12T13:56:16.672Z,3.00
2024-01-12T14:01:19.267Z,3.20
2024-01-12T14:06:22.448Z,2.60
2024-01-12T14:11:25.237Z,3.00
2024-01-12T14:16:28.237Z,2.50
2024-01-12T14:21:32.210Z,3.20
2024-01-12T14:26:34.948Z,3.10
2024-01-12T14:31:43.718Z,2.30
2024-01-12T14:36:46.420Z,3.60
2024-01-12T14:41:55.842Z,3.20
2024-01-12T14:46:59.940Z,3.00
2024-01-12T14:52:02.818Z,3.40
2024-01-12T14:57:05.588Z,3.40
2024-01-12T15:02:09.612Z,3.30
2024-01-12T15:07:12.379Z,3.20
2024-01-12T15:12:15.065Z,3.50
2024-01-12T15:17:18.437Z,3.70
2024-01-12T15:22:21.905Z,3.80
2024-01-12T15:27:24.662Z,3.20
2024-01-12T15:32:27.473Z,4.20
2024-01-12T15:37:30.645Z,4.40
2024-01-12T15:42:38.975Z,4.10
2024-01-12T15:47:47.845Z,3.90
2024-01-12T15:58:40.145Z,4.40
2024-01-12T16:03:42.977Z,4.30
2024-01-12T16:19:11.862Z,4.90
2024-01-12T16:29:47.305Z,4.60
2024-01-12T16:35:10.908Z,4.40
2024-01-12T16:40:14.129Z,5.00
2024-01-12T16:45:16.979Z,4.80
2024-01-12T16:50:20.377Z,4.90
2024-01-12T16:55:24.692Z,5.30
2024-01-12T17:00:28.677Z,5.60
2024-01-12T17:05:31.479Z,4.90
2024-01-12T17:10:35.684Z,5.30
2024-01-12T17:15:38.935Z,4.80
2024-01-12T17:20:42.555Z,4.80
2024-01-12T17:25:45.463Z,6.30
2024-01-12T17:30:48.803Z,5.20
2024-01-12T17:35:53.794Z,5.40
2024-01-12T17:40:57.169Z,5.60
2024-01-12T17:46:01.225Z,5.00
2024-01-12T17:51:05.540Z,5.40
2024-01-12T17:56:08.566Z,4.90
2024-01-12T18:01:25.600Z,6.00
2024-01-12T18:06:28.489Z,4.50
2024-01-12T18:11:33.281Z,5.70
2024-01-12T18:16:36.454Z,4.40
2024-01-12T18:21:39.106Z,5.50
2024-01-12T18:26:41.726Z,4.50
2024-01-12T18:31:46.248Z,5.70
2024-01-12T18:36:48.981Z,4.50
2024-01-12T18:41:51.909Z,6.00
2024-01-12T18:46:54.638Z,5.40
2024-01-12T18:51:59.676Z,5.00
2024-01-12T18:57:02.327Z,5.80
2024-01-12T19:02:05.958Z,5.70
2024-01-12T19:07:11.241Z,5.50
2024-01-12T19:12:13.862Z,5.20
2024-01-12T19:17:16.924Z,5.10
2024-01-12T19:22:22.333Z,5.70
2024-01-12T19:27:25.053Z,6.30
2024-01-12T19:32:28.396Z,5.70
2024-01-12T19:37:31.975Z,4.90
2024-01-12T19:42:35.073Z,4.90
2024-01-12T19:47:39.256Z,5.90
2024-01-12T19:52:42.113Z,5.60
2024-01-12T19:57:44.916Z,6.10
2024-01-12T20:02:49.065Z,5.10
2024-01-12T20:07:51.873Z,6.10
2024-01-12T20:12:55.013Z,4.80
2024-01-12T20:17:57.711Z,5.10
2024-01-12T20:23:00.442Z,5.10
2024-01-12T20:28:08.003Z,5.20
2024-01-12T20:33:12.021Z,5.00
2024-01-12T20:38:15.243Z,4.60
2024-01-12T20:43:17.874Z,5.80
2024-01-12T20:48:22.456Z,5.20
2024-01-12T20:53:26.044Z,5.40
2024-01-12T20:58:30.028Z,5.60
2024-01-12T21:03:34.666Z,5.80
2024-01-12T21:08:37.987Z,5.30
2024-01-12T21:13:40.954Z,6.60
2024-01-12T21:18:43.895Z,5.60
2024-01-12T21:23:47.854Z,4.70
2024-01-12T21:28:52.086Z,6.00
2024-01-12T21:33:54.749Z,4.40
2024-01-12T21:38:58.348Z,5.40
2024-01-12T21:44:03.659Z,5.90
2024-01-12T21:49:07.148Z,5.70
2024-01-12T21:54:11.247Z,5.10
2024-01-12T21:59:14.890Z,5.30
2024-01-12T22:04:18.519Z,5.30
2024-01-12T22:09:21.230Z,5.00
2024-01-12T22:14:24.851Z,5.10
2024-01-12T22:19:27.751Z,5.20
2024-01-12T22:24:34.694Z,5.70
2024-01-12T22:29:38.406Z,5.60
2024-01-12T22:34:41.182Z,5.30
2024-01-12T22:39:44.915Z,5.10
2024-01-12T22:44:48.847Z,4.90
2024-01-12T22:50:08.218Z,6.30
2024-01-12T23:00:30.062Z,4.80
2024-01-12T23:05:34.086Z,4.40
2024-01-12T23:10:39.599Z,5.10
2024-01-12T23:15:43.159Z,4.60
2024-01-12T23:20:45.746Z,4.50
2024-01-12T23:25:48.465Z,4.30
2024-01-12T23:30:51.157Z,5.60
2024-01-12T23:35:54.720Z,5.20
2024-01-12T23:40:57.468Z,4.60
2024-01-12T23:46:00.357Z,4.40
2024-01-12T23:51:03.584Z,4.10
2024-01-12T23:56:07.200Z,4.60
